sensor_id;sensor_type;location;lat;lon;timestamp;P1;durP1;ratioP1;P2;durP2;ratioP2
74900;SDS011;63461;51.416;6.758;2023-04-24T03:50:57;20.07;;;8.27;;
74900;SDS011;63461;51.416;6.758;2023-04-24T04:23:07;27.03;;;9.53;;
74900;SDS011;63461;51.416;6.758;2023-04-24T05:10:56;14.47;;;6.93;;
74900;SDS011;63461;51.416;6.758;2023-04-24T05:22:10;15.20;;;6.93;;
74900;SDS011;63461;51.416;6.758;2023-04-24T05:25:07;11.10;;;5.90;;
74900;SDS011;63461;51.416;6.758;2023-04-24T05:28:11;12.47;;;6.93;;
74900;SDS011;63461;51.416;6.758;2023-04-24T05:30:41;16.00;;;8.03;;
74900;SDS011;63461;51.416;6.758;2023-04-24T05:33:12;23.13;;;9.33;;
74900;SDS011;63461;51.416;6.758;2023-04-24T05:35:40;20.67;;;9.93;;
74900;SDS011;63461;51.416;6.758;2023-04-24T05:38:12;19.80;;;10.40;;
74900;SDS011;63461;51.416;6.758;2023-04-24T05:41:19;21.50;;;9.83;;
74900;SDS011;63461;51.416;6.758;2023-04-24T05:43:47;19.20;;;8.70;;
74900;SDS011;63461;51.416;6.758;2023-04-24T05:46:41;20.03;;;8.93;;
74900;SDS011;63461;51.416;6.758;2023-04-24T05:49:09;19.17;;;8.87;;
74900;SDS011;63461;51.416;6.758;2023-04-24T05:51:37;18.80;;;9.57;;
74900;SDS011;63461;51.416;6.758;2023-04-24T05:54:04;21.47;;;10.30;;
74900;SDS011;63461;51.416;6.758;2023-04-24T05:56:38;21.20;;;9.73;;
74900;SDS011;63461;51.416;6.758;2023-04-24T05:59:13;20.60;;;8.53;;
74900;SDS011;63461;51.416;6.758;2023-04-24T06:01:44;22.20;;;9.93;;
74900;SDS011;63461;51.416;6.758;2023-04-24T06:04:22;17.30;;;8.60;;
74900;SDS011;63461;51.416;6.758;2023-04-24T06:06:50;16.93;;;8.13;;
74900;SDS011;63461;51.416;6.758;2023-04-24T06:09:38;15.77;;;7.67;;
74900;SDS011;63461;51.416;6.758;2023-04-24T06:12:04;18.77;;;8.30;;
74900;SDS011;63461;51.416;6.758;2023-04-24T06:14:54;17.30;;;8.07;;
74900;SDS011;63461;51.416;6.758;2023-04-24T06:17:39;16.70;;;7.73;;
74900;SDS011;63461;51.416;6.758;2023-04-24T06:20:15;17.67;;;8.30;;
74900;SDS011;63461;51.416;6.758;2023-04-24T06:22:47;18.50;;;8.43;;
74900;SDS011;63461;51.416;6.758;2023-04-24T06:25:18;14.97;;;7.23;;
74900;SDS011;63461;51.416;6.758;2023-04-24T06:27:44;14.97;;;7.87;;
74900;SDS011;63461;51.416;6.758;2023-04-24T06:30:15;15.00;;;7.43;;
74900;SDS011;63461;51.416;6.758;2023-04-24T06:32:59;14.73;;;7.27;;
74900;SDS011;63461;51.416;6.758;2023-04-24T06:35:59;16.80;;;7.67;;
74900;SDS011;63461;51.416;6.758;2023-04-24T06:38:32;15.17;;;8.30;;
74900;SDS011;63461;51.416;6.758;2023-04-24T06:41:10;14.07;;;6.13;;
74900;SDS011;63461;51.416;6.758;2023-04-24T06:44:02;16.60;;;7.80;;
74900;SDS011;63461;51.416;6.758;2023-04-24T06:46:31;22.93;;;10.03;;
74900;SDS011;63461;51.416;6.758;2023-04-24T06:49:00;14.00;;;5.87;;
74900;SDS011;63461;51.416;6.758;2023-04-24T06:51:29;12.93;;;5.70;;
74900;SDS011;63461;51.416;6.758;2023-04-24T06:54:07;9.57;;;4.63;;
74900;SDS011;63461;51.416;6.758;2023-04-24T06:56:36;6.57;;;3.47;;
74900;SDS011;63461;51.416;6.758;2023-04-24T06:59:07;4.87;;;2.50;;
74900;SDS011;63461;51.416;6.758;2023-04-24T07:01:39;5.10;;;3.07;;
74900;SDS011;63461;51.416;6.758;2023-04-24T07:04:07;8.47;;;3.37;;
74900;SDS011;63461;51.416;6.758;2023-04-24T07:06:41;5.10;;;2.87;;
74900;SDS011;63461;51.416;6.758;2023-04-24T07:09:09;7.30;;;3.30;;
74900;SDS011;63461;51.416;6.758;2023-04-24T07:11:59;5.00;;;3.20;;
74900;SDS011;63461;51.416;6.758;2023-04-24T07:14:24;3.40;;;2.17;;
74900;SDS011;63461;51.416;6.758;2023-04-24T07:16:54;6.93;;;3.00;;
74900;SDS011;63461;51.416;6.758;2023-04-24T07:19:22;7.47;;;3.77;;
74900;SDS011;63461;51.416;6.758;2023-04-24T07:21:50;4.73;;;3.37;;
74900;SDS011;63461;51.416;6.758;2023-04-24T07:24:23;7.60;;;3.43;;
74900;SDS011;63461;51.416;6.758;2023-04-24T07:26:54;5.87;;;3.20;;
74900;SDS011;63461;51.416;6.758;2023-04-24T07:29:30;5.27;;;2.30;;
74900;SDS011;63461;51.416;6.758;2023-04-24T07:31:58;5.97;;;2.70;;
74900;SDS011;63461;51.416;6.758;2023-04-24T07:34:33;2.50;;;1.57;;
74900;SDS011;63461;51.416;6.758;2023-04-24T07:37:02;3.37;;;1.60;;
74900;SDS011;63461;51.416;6.758;2023-04-24T07:39:36;1.37;;;1.00;;
74900;SDS011;63461;51.416;6.758;2023-04-24T07:42:02;1.03;;;0.77;;
74900;SDS011;63461;51.416;6.758;2023-04-24T07:44:31;1.30;;;0.90;;
74900;SDS011;63461;51.416;6.758;2023-04-24T07:46:57;0.87;;;0.70;;
74900;SDS011;63461;51.416;6.758;2023-04-24T07:49:28;1.37;;;0.90;;
74900;SDS011;63461;51.416;6.758;2023-04-24T07:52:06;0.60;;;0.60;;
74900;SDS011;63461;51.416;6.758;2023-04-24T07:54:32;1.10;;;1.00;;
74900;SDS011;63461;51.416;6.758;2023-04-24T07:57:01;3.27;;;0.90;;
74900;SDS011;63461;51.416;6.758;2023-04-24T07:59:27;1.70;;;1.10;;
74900;SDS011;63461;51.416;6.758;2023-04-24T08:01:58;0.90;;;0.80;;
74900;SDS011;63461;51.416;6.758;2023-04-24T08:04:28;3.03;;;1.10;;
74900;SDS011;63461;51.416;6.758;2023-04-24T08:06:54;4.13;;;1.30;;
74900;SDS011;63461;51.416;6.758;2023-04-24T08:09:42;2.40;;;1.00;;
74900;SDS011;63461;51.416;6.758;2023-04-24T08:12:16;2.13;;;1.20;;
74900;SDS011;63461;51.416;6.758;2023-04-24T08:14:44;1.43;;;1.00;;
74900;SDS011;63461;51.416;6.758;2023-04-24T08:17:13;1.70;;;1.10;;
74900;SDS011;63461;51.416;6.758;2023-04-24T08:19:42;2.53;;;1.80;;
74900;SDS011;63461;51.416;6.758;2023-04-24T08:22:12;2.67;;;1.70;;
74900;SDS011;63461;51.416;6.758;2023-04-24T08:24:38;3.30;;;2.00;;
74900;SDS011;63461;51.416;6.758;2023-04-24T08:27:04;1.77;;;1.00;;
74900;SDS011;63461;51.416;6.758;2023-04-24T08:29:30;2.20;;;1.50;;
74900;SDS011;63461;51.416;6.758;2023-04-24T08:31:56;1.87;;;1.20;;
74900;SDS011;63461;51.416;6.758;2023-04-24T08:34:22;1.23;;;0.90;;
74900;SDS011;63461;51.416;6.758;2023-04-24T08:36:48;2.00;;;1.00;;
74900;SDS011;63461;51.416;6.758;2023-04-24T08:39:14;1.17;;;0.77;;
74900;SDS011;63461;51.416;6.758;2023-04-24T08:41:41;0.90;;;0.60;;
74900;SDS011;63461;51.416;6.758;2023-04-24T08:44:08;1.07;;;0.70;;
74900;SDS011;63461;51.416;6.758;2023-04-24T08:46:35;1.57;;;0.80;;
74900;SDS011;63461;51.416;6.758;2023-04-24T08:49:01;2.90;;;0.80;;
74900;SDS011;63461;51.416;6.758;2023-04-24T08:51:28;2.27;;;0.80;;
74900;SDS011;63461;51.416;6.758;2023-04-24T08:53:56;2.00;;;0.90;;
74900;SDS011;63461;51.416;6.758;2023-04-24T08:56:22;1.37;;;0.70;;
74900;SDS011;63461;51.416;6.758;2023-04-24T08:58:53;1.50;;;0.93;;
74900;SDS011;63461;51.416;6.758;2023-04-24T09:01:19;2.13;;;1.10;;
74900;SDS011;63461;51.416;6.758;2023-04-24T09:03:46;2.40;;;1.23;;
74900;SDS011;63461;51.416;6.758;2023-04-24T09:06:15;4.30;;;2.47;;
74900;SDS011;63461;51.416;6.758;2023-04-24T09:08:42;5.37;;;2.27;;
74900;SDS011;63461;51.416;6.758;2023-04-24T09:11:10;6.10;;;3.20;;
74900;SDS011;63461;51.416;6.758;2023-04-24T09:13:37;5.27;;;3.10;;
74900;SDS011;63461;51.416;6.758;2023-04-24T09:16:03;5.87;;;3.37;;
74900;SDS011;63461;51.416;6.758;2023-04-24T09:18:29;7.70;;;3.70;;
74900;SDS011;63461;51.416;6.758;2023-04-24T09:21:02;8.63;;;4.27;;
74900;SDS011;63461;51.416;6.758;2023-04-24T09:23:30;6.63;;;4.10;;
74900;SDS011;63461;51.416;6.758;2023-04-24T09:25:56;7.30;;;3.80;;
74900;SDS011;63461;51.416;6.758;2023-04-24T09:28:30;8.90;;;3.90;;
74900;SDS011;63461;51.416;6.758;2023-04-24T09:31:06;5.50;;;3.43;;
74900;SDS011;63461;51.416;6.758;2023-04-24T09:33:32;6.00;;;3.60;;
74900;SDS011;63461;51.416;6.758;2023-04-24T09:35:58;6.53;;;3.80;;
74900;SDS011;63461;51.416;6.758;2023-04-24T09:38:31;8.37;;;3.70;;
74900;SDS011;63461;51.416;6.758;2023-04-24T09:41:01;8.40;;;4.23;;
74900;SDS011;63461;51.416;6.758;2023-04-24T09:43:29;7.17;;;3.53;;
74900;SDS011;63461;51.416;6.758;2023-04-24T09:45:57;8.20;;;3.40;;
74900;SDS011;63461;51.416;6.758;2023-04-24T09:48:32;6.87;;;3.73;;
74900;SDS011;63461;51.416;6.758;2023-04-24T09:51:01;8.17;;;4.60;;
74900;SDS011;63461;51.416;6.758;2023-04-24T09:53:28;9.23;;;5.13;;
74900;SDS011;63461;51.416;6.758;2023-04-24T09:55:56;14.03;;;4.87;;
74900;SDS011;63461;51.416;6.758;2023-04-24T09:58:28;10.23;;;4.40;;
74900;SDS011;63461;51.416;6.758;2023-04-24T10:00:55;7.20;;;3.83;;
74900;SDS011;63461;51.416;6.758;2023-04-24T10:03:25;10.83;;;4.30;;
74900;SDS011;63461;51.416;6.758;2023-04-24T10:05:52;9.97;;;4.63;;
74900;SDS011;63461;51.416;6.758;2023-04-24T10:08:19;8.33;;;3.57;;
74900;SDS011;63461;51.416;6.758;2023-04-24T10:10:45;12.23;;;4.47;;
74900;SDS011;63461;51.416;6.758;2023-04-24T10:13:12;12.53;;;3.67;;
74900;SDS011;63461;51.416;6.758;2023-04-24T10:15:40;10.33;;;3.77;;
74900;SDS011;63461;51.416;6.758;2023-04-24T10:18:07;8.30;;;3.97;;
74900;SDS011;63461;51.416;6.758;2023-04-24T10:20:35;12.17;;;3.60;;
74900;SDS011;63461;51.416;6.758;2023-04-24T10:23:03;12.37;;;3.57;;
74900;SDS011;63461;51.416;6.758;2023-04-24T10:25:30;12.23;;;3.97;;
74900;SDS011;63461;51.416;6.758;2023-04-24T10:27:58;13.03;;;3.80;;
74900;SDS011;63461;51.416;6.758;2023-04-24T10:30:26;16.10;;;3.87;;
74900;SDS011;63461;51.416;6.758;2023-04-24T10:32:54;10.77;;;4.37;;
74900;SDS011;63461;51.416;6.758;2023-04-24T10:35:21;13.63;;;4.17;;
74900;SDS011;63461;51.416;6.758;2023-04-24T10:37:54;16.17;;;3.90;;
74900;SDS011;63461;51.416;6.758;2023-04-24T10:40:27;17.37;;;4.30;;
74900;SDS011;63461;51.416;6.758;2023-04-24T10:42:57;16.27;;;4.53;;
74900;SDS011;63461;51.416;6.758;2023-04-24T10:45:23;15.23;;;4.53;;
74900;SDS011;63461;51.416;6.758;2023-04-24T10:50:28;17.90;;;4.10;;
74900;SDS011;63461;51.416;6.758;2023-04-24T10:53:05;12.47;;;3.40;;
74900;SDS011;63461;51.416;6.758;2023-04-24T10:55:40;12.73;;;4.10;;
74900;SDS011;63461;51.416;6.758;2023-04-24T10:58:14;5.93;;;1.97;;
74900;SDS011;63461;51.416;6.758;2023-04-24T11:00:42;14.83;;;3.37;;
74900;SDS011;63461;51.416;6.758;2023-04-24T11:03:23;12.40;;;3.40;;
74900;SDS011;63461;51.416;6.758;2023-04-24T11:06:01;9.63;;;3.33;;
74900;SDS011;63461;51.416;6.758;2023-04-24T11:08:39;11.67;;;3.97;;
74900;SDS011;63461;51.416;6.758;2023-04-24T11:16:28;11.43;;;3.60;;
74900;SDS011;63461;51.416;6.758;2023-04-24T11:19:10;12.37;;;3.67;;
74900;SDS011;63461;51.416;6.758;2023-04-24T11:32:26;7.80;;;2.03;;
74900;SDS011;63461;51.416;6.758;2023-04-24T11:35:00;11.97;;;2.47;;
74900;SDS011;63461;51.416;6.758;2023-04-24T11:37:38;9.97;;;2.23;;
74900;SDS011;63461;51.416;6.758;2023-04-24T11:40:05;8.90;;;2.50;;
74900;SDS011;63461;51.416;6.758;2023-04-24T11:42:36;8.67;;;2.40;;
74900;SDS011;63461;51.416;6.758;2023-04-24T11:45:17;7.67;;;2.40;;
74900;SDS011;63461;51.416;6.758;2023-04-24T11:47:44;11.43;;;2.50;;
74900;SDS011;63461;51.416;6.758;2023-04-24T11:50:11;12.23;;;3.07;;
74900;SDS011;63461;51.416;6.758;2023-04-24T11:52:39;10.77;;;2.57;;
74900;SDS011;63461;51.416;6.758;2023-04-24T11:57:45;6.33;;;2.23;;
74900;SDS011;63461;51.416;6.758;2023-04-24T12:00:30;9.87;;;3.00;;
74900;SDS011;63461;51.416;6.758;2023-04-24T12:03:10;11.77;;;2.80;;
74900;SDS011;63461;51.416;6.758;2023-04-24T12:05:37;9.53;;;2.90;;
74900;SDS011;63461;51.416;6.758;2023-04-24T12:08:04;9.33;;;3.20;;
74900;SDS011;63461;51.416;6.758;2023-04-24T12:10:30;10.57;;;3.10;;
74900;SDS011;63461;51.416;6.758;2023-04-24T12:12:57;11.27;;;3.30;;
74900;SDS011;63461;51.416;6.758;2023-04-24T12:15:24;6.17;;;1.63;;
74900;SDS011;63461;51.416;6.758;2023-04-24T12:17:50;9.77;;;2.60;;
74900;SDS011;63461;51.416;6.758;2023-04-24T12:20:17;5.43;;;1.70;;
74900;SDS011;63461;51.416;6.758;2023-04-24T12:23:00;10.87;;;2.40;;
74900;SDS011;63461;51.416;6.758;2023-04-24T12:25:30;9.43;;;2.20;;
74900;SDS011;63461;51.416;6.758;2023-04-24T12:30:29;7.53;;;2.13;;
74900;SDS011;63461;51.416;6.758;2023-04-24T12:32:59;9.47;;;2.10;;
74900;SDS011;63461;51.416;6.758;2023-04-24T12:35:29;7.57;;;1.80;;
74900;SDS011;63461;51.416;6.758;2023-04-24T12:38:10;4.57;;;2.00;;
74900;SDS011;63461;51.416;6.758;2023-04-24T12:40:38;7.43;;;2.17;;
74900;SDS011;63461;51.416;6.758;2023-04-24T12:43:13;6.33;;;1.87;;
74900;SDS011;63461;51.416;6.758;2023-04-24T12:48:42;3.73;;;1.37;;
74900;SDS011;63461;51.416;6.758;2023-04-24T12:51:11;8.03;;;1.33;;
74900;SDS011;63461;51.416;6.758;2023-04-24T12:53:37;3.73;;;1.50;;
74900;SDS011;63461;51.416;6.758;2023-04-24T12:56:03;3.87;;;1.33;;
74900;SDS011;63461;51.416;6.758;2023-04-24T12:58:29;7.30;;;1.50;;
74900;SDS011;63461;51.416;6.758;2023-04-24T13:00:55;3.77;;;1.47;;
74900;SDS011;63461;51.416;6.758;2023-04-24T13:03:21;3.90;;;1.20;;
74900;SDS011;63461;51.416;6.758;2023-04-24T13:05:47;3.83;;;1.03;;
74900;SDS011;63461;51.416;6.758;2023-04-24T13:08:13;4.23;;;1.10;;
74900;SDS011;63461;51.416;6.758;2023-04-24T13:10:39;4.03;;;1.40;;
74900;SDS011;63461;51.416;6.758;2023-04-24T13:13:05;4.30;;;0.93;;
74900;SDS011;63461;51.416;6.758;2023-04-24T13:15:31;6.57;;;1.23;;
74900;SDS011;63461;51.416;6.758;2023-04-24T13:17:57;3.93;;;1.10;;
74900;SDS011;63461;51.416;6.758;2023-04-24T13:20:23;3.67;;;0.90;;
74900;SDS011;63461;51.416;6.758;2023-04-24T13:22:48;6.67;;;1.40;;
74900;SDS011;63461;51.416;6.758;2023-04-24T13:25:14;4.73;;;1.40;;
74900;SDS011;63461;51.416;6.758;2023-04-24T13:27:42;3.40;;;1.13;;
74900;SDS011;63461;51.416;6.758;2023-04-24T13:30:07;3.20;;;1.00;;
74900;SDS011;63461;51.416;6.758;2023-04-24T13:32:34;5.97;;;1.20;;
74900;SDS011;63461;51.416;6.758;2023-04-24T13:35:00;4.53;;;1.30;;
74900;SDS011;63461;51.416;6.758;2023-04-24T13:37:26;5.20;;;1.10;;
74900;SDS011;63461;51.416;6.758;2023-04-24T13:39:51;8.70;;;1.40;;
74900;SDS011;63461;51.416;6.758;2023-04-24T13:42:17;8.00;;;1.70;;
74900;SDS011;63461;51.416;6.758;2023-04-24T13:44:44;9.77;;;1.53;;
74900;SDS011;63461;51.416;6.758;2023-04-24T13:47:09;5.83;;;1.60;;
74900;SDS011;63461;51.416;6.758;2023-04-24T13:49:35;9.00;;;1.77;;
74900;SDS011;63461;51.416;6.758;2023-04-24T13:52:01;7.30;;;1.40;;
74900;SDS011;63461;51.416;6.758;2023-04-24T13:54:28;6.63;;;1.90;;
74900;SDS011;63461;51.416;6.758;2023-04-24T13:56:55;6.10;;;1.67;;
74900;SDS011;63461;51.416;6.758;2023-04-24T13:59:23;7.03;;;1.47;;
74900;SDS011;63461;51.416;6.758;2023-04-24T14:01:49;6.77;;;1.60;;
74900;SDS011;63461;51.416;6.758;2023-04-24T14:04:15;6.50;;;0.77;;
74900;SDS011;63461;51.416;6.758;2023-04-24T16:06:27;4.40;;;1.10;;
74900;SDS011;63461;51.416;6.758;2023-04-24T16:16:09;2.77;;;1.30;;
74900;SDS011;63461;51.416;6.758;2023-04-24T16:18:37;4.37;;;1.40;;
74900;SDS011;63461;51.416;6.758;2023-04-24T16:21:03;3.97;;;1.20;;
74900;SDS011;63461;51.416;6.758;2023-04-24T16:23:29;3.67;;;1.10;;
74900;SDS011;63461;51.416;6.758;2023-04-24T16:25:55;4.33;;;1.40;;
74900;SDS011;63461;51.416;6.758;2023-04-24T16:28:26;5.70;;;1.50;;
74900;SDS011;63461;51.416;6.758;2023-04-24T16:30:52;4.03;;;1.20;;
74900;SDS011;63461;51.416;6.758;2023-04-24T16:33:18;3.63;;;1.13;;
74900;SDS011;63461;51.416;6.758;2023-04-24T16:35:44;4.83;;;1.30;;
74900;SDS011;63461;51.416;6.758;2023-04-24T16:38:10;2.37;;;1.03;;
74900;SDS011;63461;51.416;6.758;2023-04-24T16:40:36;2.13;;;0.57;;
74900;SDS011;63461;51.416;6.758;2023-04-24T16:43:02;2.90;;;1.20;;
74900;SDS011;63461;51.416;6.758;2023-04-24T16:45:28;2.90;;;1.37;;
74900;SDS011;63461;51.416;6.758;2023-04-24T16:47:54;3.20;;;1.70;;
74900;SDS011;63461;51.416;6.758;2023-04-24T16:50:20;3.97;;;1.30;;
74900;SDS011;63461;51.416;6.758;2023-04-24T16:52:46;4.03;;;1.50;;
74900;SDS011;63461;51.416;6.758;2023-04-24T16:55:15;7.87;;;1.53;;
74900;SDS011;63461;51.416;6.758;2023-04-24T16:57:41;3.97;;;1.23;;
74900;SDS011;63461;51.416;6.758;2023-04-24T17:00:07;3.53;;;1.20;;
74900;SDS011;63461;51.416;6.758;2023-04-24T17:02:33;3.33;;;1.30;;
74900;SDS011;63461;51.416;6.758;2023-04-24T17:04:58;5.77;;;1.47;;
74900;SDS011;63461;51.416;6.758;2023-04-24T17:07:24;3.73;;;1.40;;
74900;SDS011;63461;51.416;6.758;2023-04-24T17:09:51;4.30;;;1.30;;
74900;SDS011;63461;51.416;6.758;2023-04-24T17:12:16;4.93;;;1.43;;
74900;SDS011;63461;51.416;6.758;2023-04-24T17:14:42;5.47;;;1.70;;
74900;SDS011;63461;51.416;6.758;2023-04-24T17:17:08;3.83;;;1.10;;
74900;SDS011;63461;51.416;6.758;2023-04-24T17:19:34;4.30;;;1.33;;
74900;SDS011;63461;51.416;6.758;2023-04-24T17:22:00;3.07;;;1.30;;
74900;SDS011;63461;51.416;6.758;2023-04-24T17:24:26;5.27;;;1.70;;
74900;SDS011;63461;51.416;6.758;2023-04-24T17:26:52;2.90;;;1.70;;
74900;SDS011;63461;51.416;6.758;2023-04-24T17:29:18;5.63;;;1.50;;
74900;SDS011;63461;51.416;6.758;2023-04-24T17:31:43;5.60;;;1.47;;
74900;SDS011;63461;51.416;6.758;2023-04-24T17:34:09;7.47;;;1.63;;
74900;SDS011;63461;51.416;6.758;2023-04-24T17:36:35;5.43;;;1.53;;
74900;SDS011;63461;51.416;6.758;2023-04-24T17:39:02;3.60;;;1.40;;
74900;SDS011;63461;51.416;6.758;2023-04-24T17:41:28;7.10;;;1.60;;
74900;SDS011;63461;51.416;6.758;2023-04-24T17:43:54;6.70;;;1.53;;
74900;SDS011;63461;51.416;6.758;2023-04-24T17:46:20;6.53;;;1.60;;
74900;SDS011;63461;51.416;6.758;2023-04-24T17:48:46;5.23;;;1.80;;
74900;SDS011;63461;51.416;6.758;2023-04-24T17:51:12;6.47;;;1.83;;
74900;SDS011;63461;51.416;6.758;2023-04-24T17:53:37;6.50;;;1.80;;
74900;SDS011;63461;51.416;6.758;2023-04-24T17:56:04;4.73;;;1.40;;
74900;SDS011;63461;51.416;6.758;2023-04-24T17:58:33;4.83;;;1.77;;
74900;SDS011;63461;51.416;6.758;2023-04-24T18:00:59;8.60;;;2.00;;
74900;SDS011;63461;51.416;6.758;2023-04-24T18:03:25;5.03;;;1.70;;
74900;SDS011;63461;51.416;6.758;2023-04-24T18:05:51;3.57;;;1.47;;
74900;SDS011;63461;51.416;6.758;2023-04-24T18:08:16;4.23;;;1.80;;
74900;SDS011;63461;51.416;6.758;2023-04-24T18:10:42;4.93;;;1.67;;
74900;SDS011;63461;51.416;6.758;2023-04-24T18:13:08;7.97;;;1.80;;
74900;SDS011;63461;51.416;6.758;2023-04-24T18:15:34;4.37;;;1.50;;
74900;SDS011;63461;51.416;6.758;2023-04-24T18:18:00;5.27;;;1.93;;
74900;SDS011;63461;51.416;6.758;2023-04-24T18:20:25;6.80;;;1.93;;
74900;SDS011;63461;51.416;6.758;2023-04-24T18:22:52;6.87;;;1.83;;
74900;SDS011;63461;51.416;6.758;2023-04-24T18:25:18;12.17;;;2.00;;
74900;SDS011;63461;51.416;6.758;2023-04-24T18:27:50;8.20;;;2.43;;
74900;SDS011;63461;51.416;6.758;2023-04-24T18:30:18;6.10;;;2.00;;
74900;SDS011;63461;51.416;6.758;2023-04-24T18:32:47;7.63;;;2.30;;
74900;SDS011;63461;51.416;6.758;2023-04-24T18:35:14;7.07;;;2.17;;
74900;SDS011;63461;51.416;6.758;2023-04-24T18:37:41;6.27;;;2.10;;
74900;SDS011;63461;51.416;6.758;2023-04-24T18:40:08;5.40;;;1.73;;
74900;SDS011;63461;51.416;6.758;2023-04-24T18:42:33;4.60;;;2.03;;
74900;SDS011;63461;51.416;6.758;2023-04-24T18:44:59;8.77;;;2.10;;
74900;SDS011;63461;51.416;6.758;2023-04-24T18:47:26;8.67;;;2.77;;
74900;SDS011;63461;51.416;6.758;2023-04-24T18:49:55;5.33;;;1.73;;
74900;SDS011;63461;51.416;6.758;2023-04-24T18:52:24;7.83;;;2.17;;
74900;SDS011;63461;51.416;6.758;2023-04-24T18:54:50;5.33;;;2.10;;
74900;SDS011;63461;51.416;6.758;2023-04-24T19:14:22;6.30;;;2.53;;
74900;SDS011;63461;51.416;6.758;2023-04-24T19:21:20;10.33;;;2.67;;
74900;SDS011;63461;51.416;6.758;2023-04-24T19:24:16;8.60;;;2.63;;
74900;SDS011;63461;51.416;6.758;2023-04-24T19:44:19;9.47;;;2.43;;
74900;SDS011;63461;51.416;6.758;2023-04-24T19:46:57;8.97;;;2.60;;
74900;SDS011;63461;51.416;6.758;2023-04-24T19:49:30;9.40;;;2.70;;
74900;SDS011;63461;51.416;6.758;2023-04-24T19:52:02;6.80;;;2.70;;
74900;SDS011;63461;51.416;6.758;2023-04-24T19:54:38;10.13;;;2.80;;
74900;SDS011;63461;51.416;6.758;2023-04-24T19:57:09;9.93;;;2.57;;
74900;SDS011;63461;51.416;6.758;2023-04-24T20:00:27;9.33;;;2.73;;
74900;SDS011;63461;51.416;6.758;2023-04-24T20:04:10;6.40;;;2.47;;
74900;SDS011;63461;51.416;6.758;2023-04-24T20:07:13;12.83;;;2.80;;
74900;SDS011;63461;51.416;6.758;2023-04-24T20:10:36;8.80;;;2.67;;
74900;SDS011;63461;51.416;6.758;2023-04-24T20:14:35;6.73;;;2.70;;
74900;SDS011;63461;51.416;6.758;2023-04-24T20:22:02;14.23;;;3.23;;
74900;SDS011;63461;51.416;6.758;2023-04-24T20:28:29;9.20;;;3.37;;
74900;SDS011;63461;51.416;6.758;2023-04-24T20:31:02;8.70;;;2.90;;
74900;SDS011;63461;51.416;6.758;2023-04-24T20:40:31;11.70;;;3.60;;
74900;SDS011;63461;51.416;6.758;2023-04-24T20:44:18;7.57;;;2.83;;
74900;SDS011;63461;51.416;6.758;2023-04-24T20:47:12;12.33;;;3.70;;
74900;SDS011;63461;51.416;6.758;2023-04-24T20:51:21;8.93;;;3.40;;
74900;SDS011;63461;51.416;6.758;2023-04-24T20:54:24;10.03;;;3.10;;
74900;SDS011;63461;51.416;6.758;2023-04-24T21:04:58;10.07;;;3.50;;
74900;SDS011;63461;51.416;6.758;2023-04-24T21:08:09;11.27;;;3.33;;
74900;SDS011;63461;51.416;6.758;2023-04-24T21:10:58;12.43;;;3.60;;
74900;SDS011;63461;51.416;6.758;2023-04-24T21:13:33;13.70;;;3.63;;
74900;SDS011;63461;51.416;6.758;2023-04-24T21:27:42;11.03;;;3.37;;
74900;SDS011;63461;51.416;6.758;2023-04-24T21:30:17;12.53;;;3.60;;
74900;SDS011;63461;51.416;6.758;2023-04-24T21:32:45;13.47;;;3.60;;
74900;SDS011;63461;51.416;6.758;2023-04-24T21:35:10;12.77;;;3.40;;
74900;SDS011;63461;51.416;6.758;2023-04-24T21:37:36;19.00;;;4.27;;
74900;SDS011;63461;51.416;6.758;2023-04-24T21:40:04;12.53;;;3.60;;
74900;SDS011;63461;51.416;6.758;2023-04-24T21:42:31;16.00;;;4.00;;
74900;SDS011;63461;51.416;6.758;2023-04-24T21:44:57;11.97;;;3.67;;
74900;SDS011;63461;51.416;6.758;2023-04-24T21:47:22;12.93;;;4.07;;
74900;SDS011;63461;51.416;6.758;2023-04-24T21:49:48;16.43;;;4.00;;
74900;SDS011;63461;51.416;6.758;2023-04-24T21:52:14;12.43;;;4.10;;
74900;SDS011;63461;51.416;6.758;2023-04-24T21:54:40;9.67;;;4.03;;
74900;SDS011;63461;51.416;6.758;2023-04-24T21:57:05;11.70;;;3.80;;
74900;SDS011;63461;51.416;6.758;2023-04-24T21:59:32;13.83;;;3.80;;
74900;SDS011;63461;51.416;6.758;2023-04-24T22:01:58;14.07;;;4.40;;
74900;SDS011;63461;51.416;6.758;2023-04-24T22:04:24;15.30;;;3.50;;
74900;SDS011;63461;51.416;6.758;2023-04-24T22:06:50;14.80;;;3.77;;
74900;SDS011;63461;51.416;6.758;2023-04-24T22:09:17;11.93;;;3.90;;
74900;SDS011;63461;51.416;6.758;2023-04-24T22:11:44;12.50;;;3.97;;
74900;SDS011;63461;51.416;6.758;2023-04-24T22:14:10;11.30;;;4.13;;
74900;SDS011;63461;51.416;6.758;2023-04-24T22:16:36;16.33;;;5.00;;
74900;SDS011;63461;51.416;6.758;2023-04-24T22:19:02;11.80;;;4.13;;
74900;SDS011;63461;51.416;6.758;2023-04-24T22:21:29;12.83;;;4.30;;
74900;SDS011;63461;51.416;6.758;2023-04-24T22:23:55;15.47;;;4.20;;
74900;SDS011;63461;51.416;6.758;2023-04-24T22:26:21;19.17;;;4.60;;
74900;SDS011;63461;51.416;6.758;2023-04-24T22:28:47;15.57;;;4.20;;
74900;SDS011;63461;51.416;6.758;2023-04-24T22:31:12;14.50;;;4.67;;
74900;SDS011;63461;51.416;6.758;2023-04-24T22:33:38;14.20;;;3.83;;
74900;SDS011;63461;51.416;6.758;2023-04-24T22:36:04;12.33;;;4.23;;
74900;SDS011;63461;51.416;6.758;2023-04-24T22:38:30;17.83;;;4.77;;
74900;SDS011;63461;51.416;6.758;2023-04-24T22:40:59;16.07;;;4.13;;
74900;SDS011;63461;51.416;6.758;2023-04-24T22:43:26;17.30;;;4.70;;
74900;SDS011;63461;51.416;6.758;2023-04-24T22:45:52;16.77;;;4.20;;
74900;SDS011;63461;51.416;6.758;2023-04-24T22:48:17;18.50;;;5.10;;
74900;SDS011;63461;51.416;6.758;2023-04-24T22:50:43;16.33;;;4.93;;
74900;SDS011;63461;51.416;6.758;2023-04-24T22:53:09;11.33;;;4.23;;
74900;SDS011;63461;51.416;6.758;2023-04-24T22:55:35;14.50;;;4.40;;
74900;SDS011;63461;51.416;6.758;2023-04-24T22:58:01;14.27;;;4.10;;
74900;SDS011;63461;51.416;6.758;2023-04-24T23:00:26;13.07;;;4.03;;
74900;SDS011;63461;51.416;6.758;2023-04-24T23:02:52;23.87;;;5.20;;
74900;SDS011;63461;51.416;6.758;2023-04-24T23:05:18;17.73;;;4.40;;
74900;SDS011;63461;51.416;6.758;2023-04-24T23:07:46;20.17;;;5.20;;
74900;SDS011;63461;51.416;6.758;2023-04-24T23:10:12;22.33;;;4.27;;
74900;SDS011;63461;51.416;6.758;2023-04-24T23:12:38;22.57;;;4.57;;
74900;SDS011;63461;51.416;6.758;2023-04-24T23:15:04;18.03;;;4.73;;
74900;SDS011;63461;51.416;6.758;2023-04-24T23:17:30;13.87;;;4.57;;
74900;SDS011;63461;51.416;6.758;2023-04-24T23:19:56;13.47;;;4.20;;
74900;SDS011;63461;51.416;6.758;2023-04-24T23:22:22;17.43;;;4.87;;
74900;SDS011;63461;51.416;6.758;2023-04-24T23:24:47;16.57;;;4.50;;
74900;SDS011;63461;51.416;6.758;2023-04-24T23:27:13;20.03;;;4.63;;
74900;SDS011;63461;51.416;6.758;2023-04-24T23:29:39;16.73;;;4.40;;
74900;SDS011;63461;51.416;6.758;2023-04-24T23:32:05;15.73;;;4.30;;
74900;SDS011;63461;51.416;6.758;2023-04-24T23:34:30;15.30;;;4.70;;
74900;SDS011;63461;51.416;6.758;2023-04-24T23:36:58;14.03;;;4.43;;
74900;SDS011;63461;51.416;6.758;2023-04-24T23:39:24;17.27;;;4.60;;
74900;SDS011;63461;51.416;6.758;2023-04-24T23:41:50;15.70;;;4.43;;
74900;SDS011;63461;51.416;6.758;2023-04-24T23:44:17;16.70;;;4.20;;
74900;SDS011;63461;51.416;6.758;2023-04-24T23:46:44;16.73;;;4.47;;
74900;SDS011;63461;51.416;6.758;2023-04-24T23:49:09;16.93;;;4.30;;
74900;SDS011;63461;51.416;6.758;2023-04-24T23:51:35;16.07;;;3.67;;
74900;SDS011;63461;51.416;6.758;2023-04-24T23:54:01;11.77;;;4.00;;
74900;SDS011;63461;51.416;6.758;2023-04-24T23:56:27;13.50;;;4.03;;
74900;SDS011;63461;51.416;6.758;2023-04-24T23:58:53;15.93;;;4.20;;
